SBSVSBJU

Guest
Details From SBSV - Salvador Bahia Deputado Luis Eduardo M
To SBJU - Orlando Bezerra de Menezes
Flight Number -
Tags generated
Created
Modified
Stats Distance 373 nm / 691 km
Max Altitude 34,000 ft / 10,363 m
Waypoints 5
Social Downloads 0
Likes 0
Share VATSIM

Download

Looking for another format? Having issues loading an existing format? Contact us
Advertisement - Login to hide

Notes

Basic altitude profile: - Ascent Rate: 2500ft/min - Ascent Speed: 250kts - Cruise Altitude: 35000ft - Cruise Speed: 420kts - Descent Rate: 1500ft/min - Descent Speed: 250kts Options: - Use NATs: yes - Use PACOTS: yes - Use low airways: yes - Use high airways: yes

Route

SBSV ADOLF UZ19 BANGU SBJU

ID Type Via Altitude Latitude Longitude Leg Dist Tot Dist Heading (true) Name
O SBSV APT - 0 ft / 0 m -12.91099˚ -38.33104˚ - 0 nm - Salvador Bahia Deputado Luis Eduardo M
ADOLF FIX - 24,600 ft / 7,498 m -11.75992˚ -38.35042˚ 69 nm 69 nm 359° / 359° -
FROTI FIX UZ19 (AWY-HI) 34,000 ft / 10,363 m -10.27700˚ -38.38767˚ 89 nm 158 nm 359° / 359° -
BANGU FIX UZ19 (AWY-HI) 24,500 ft / 7,468 m -7.59667˚ -38.45417˚ 161 nm 319 nm 359° / 359° -
O SBJU APT - 0 ft / 0 m -7.21896˚ -39.27010˚ 53 nm 372 nm 295° / 295° Orlando Bezerra de Menezes

Altitude Profile

Advertisement - Login to hide

Weather


0- 5 10 15 20 25 30 35+ Temperature / ° C

Clouds and Precipitation
Forecast for 2017-12-13 18:00 UTC. Updated 8 minutes ago

Ground ~20,000 ft ~40,000 ft Winds

SBSV

Details ICAO SBSV (SSA)
Name Salvador Bahia Deputado Luis Eduardo M
Region Brazil
Timezone America/Bahia (UTC-3.0)
Stats Elevation 64 ft / 20 m (AMSL)
Location -12.910994° -38.331043°
Runways 2
Magnetic Variation 23.437° W

METAR

SBSV 131300Z 03005KT 340V080 9000 VCSH SCT017 FEW020TCU BKN060 28/23 Q1015

Decode

TAF

TAF SBSV 131000Z 1312/1412 06012KT 7000 BKN016 FEW020TCU TX30/1315Z TN24/1407Z TEMPO 1320/1323 03010KT 5000 SHRA BECMG 1400/1402 03008KT SCT017 BECMG 1406/1407 02005KT RMK PEA

Decode

Departure Runways

ID Width Length Bearing (true) Bearing (mag) Surface Threshold Offset Overrun Length
10 148 ft / 45 m 9,845 ft / 3,001 m 78.32° 101.76° Asphalt 0 ft / 0 m 205 ft / 62 m
17 148 ft / 45 m 5,014 ft / 1,528 m 144.04° 167.48° Asphalt 0 ft / 0 m 0 ft / 0 m
28 148 ft / 45 m 9,845 ft / 3,001 m 258.31° 281.75° Asphalt 0 ft / 0 m 205 ft / 62 m
35 148 ft / 45 m 5,014 ft / 1,528 m 324.04° 347.48° Asphalt 0 ft / 0 m 0 ft / 0 m

SBJU

Details ICAO SBJU (JDO)
Name Orlando Bezerra de Menezes
Region Brazil
Timezone America/Fortaleza (UTC-3.0)
Stats Elevation 1,392 ft / 424 m (AMSL)
Location -7.218958° -39.270099°
Runways 1
Magnetic Variation 22.127° W

METAR

SBJU 131200Z 09006KT 9999 SCT020 29/19 Q1017

Decode

TAF

Not found

Destination Runways

ID Width Length Bearing (true) Bearing (mag) Surface Threshold Offset Overrun Length
13 148 ft / 45 m 5,900 ft / 1,798 m 110.75° 132.88° Asphalt 0 ft / 0 m 0 ft / 0 m
31 148 ft / 45 m 5,900 ft / 1,798 m 290.75° 312.88° Asphalt 0 ft / 0 m 0 ft / 0 m